SGCO/CIO METAR and TAF weather

Enter ICAO airport designator
Station Type Date Time Source
SGCO METAR 2024/06/14 21:00 UTC NOAA

SGCO 142100Z 04010KT CAVOK 33/13 Q1004


Station Type Date Time Source
SGCO Decoded METAR 2024/06/14 21:00 UTC NOAA

Concepcion, Paraguay (SGCO) 23-25S 057-18W 74M
Jun 14, 2024 - 05:00 PM EDT / 2024.06.14 2100 UTC
Wind: from the NE (040 degrees) at 12 MPH (10 KT):0
Visibility: greater than 7 mile(s):0
Temperature: 91 F (33 C)
Dew Point: 55 F (13 C)
Relative Humidity: 29%
Pressure (altimeter): 29.65 in. Hg (1004 hPa)
ob: SGCO 142100Z 04010KT CAVOK 33/13 Q1004
cycle: 21

Station Type Date Time Source
SGCO TAF 2024/06/14 18:00 UTC NOAA